sensor_id;sensor_type;location;lat;lon;timestamp;P1;durP1;ratioP1;P2;durP2;ratioP2
75035;SDS011;64247;51.540;5.854;2022-11-20T00:01:48;12.90;;;7.65;;
75035;SDS011;64247;51.540;5.854;2022-11-20T00:03:50;17.98;;;7.80;;
75035;SDS011;64247;51.540;5.854;2022-11-20T00:05:53;16.17;;;8.07;;
75035;SDS011;64247;51.540;5.854;2022-11-20T00:07:54;17.33;;;7.70;;
75035;SDS011;64247;51.540;5.854;2022-11-20T00:09:54;13.50;;;6.95;;
75035;SDS011;64247;51.540;5.854;2022-11-20T00:11:55;16.58;;;7.32;;
75035;SDS011;64247;51.540;5.854;2022-11-20T00:13:57;13.85;;;7.65;;
75035;SDS011;64247;51.540;5.854;2022-11-20T00:16:02;14.43;;;7.30;;
75035;SDS011;64247;51.540;5.854;2022-11-20T00:18:06;12.93;;;7.22;;
75035;SDS011;64247;51.540;5.854;2022-11-20T00:22:08;19.75;;;7.75;;
75035;SDS011;64247;51.540;5.854;2022-11-20T00:24:08;19.63;;;7.43;;
75035;SDS011;64247;51.540;5.854;2022-11-20T00:26:12;13.60;;;6.55;;
75035;SDS011;64247;51.540;5.854;2022-11-20T00:28:15;14.48;;;8.07;;
75035;SDS011;64247;51.540;5.854;2022-11-20T00:30:16;12.98;;;6.75;;
75035;SDS011;64247;51.540;5.854;2022-11-20T00:34:18;12.25;;;7.22;;
75035;SDS011;64247;51.540;5.854;2022-11-20T00:36:20;14.90;;;7.47;;
75035;SDS011;64247;51.540;5.854;2022-11-20T00:38:23;16.05;;;7.25;;
75035;SDS011;64247;51.540;5.854;2022-11-20T00:40:24;14.23;;;7.47;;
75035;SDS011;64247;51.540;5.854;2022-11-20T00:42:25;17.73;;;7.25;;
75035;SDS011;64247;51.540;5.854;2022-11-20T00:44:26;14.75;;;7.40;;
75035;SDS011;64247;51.540;5.854;2022-11-20T00:46:27;18.02;;;7.78;;
75035;SDS011;64247;51.540;5.854;2022-11-20T00:48:28;13.07;;;6.93;;
75035;SDS011;64247;51.540;5.854;2022-11-20T00:50:30;20.95;;;8.20;;
75035;SDS011;64247;51.540;5.854;2022-11-20T00:52:30;12.43;;;6.85;;
75035;SDS011;64247;51.540;5.854;2022-11-20T00:54:31;16.70;;;7.95;;
75035;SDS011;64247;51.540;5.854;2022-11-20T00:56:32;14.90;;;6.68;;
75035;SDS011;64247;51.540;5.854;2022-11-20T00:58:34;13.80;;;7.85;;
75035;SDS011;64247;51.540;5.854;2022-11-20T01:00:38;15.48;;;7.93;;
75035;SDS011;64247;51.540;5.854;2022-11-20T01:02:39;14.50;;;8.30;;
75035;SDS011;64247;51.540;5.854;2022-11-20T01:04:40;18.65;;;8.63;;
75035;SDS011;64247;51.540;5.854;2022-11-20T01:06:40;17.38;;;7.63;;
75035;SDS011;64247;51.540;5.854;2022-11-20T01:08:42;18.88;;;8.07;;
75035;SDS011;64247;51.540;5.854;2022-11-20T01:10:44;16.58;;;7.78;;
75035;SDS011;64247;51.540;5.854;2022-11-20T01:12:45;12.50;;;7.30;;
75035;SDS011;64247;51.540;5.854;2022-11-20T01:15:05;17.58;;;7.72;;
75035;SDS011;64247;51.540;5.854;2022-11-20T01:17:08;14.55;;;8.05;;
75035;SDS011;64247;51.540;5.854;2022-11-20T01:19:11;16.75;;;8.13;;
75035;SDS011;64247;51.540;5.854;2022-11-20T01:21:20;16.98;;;8.45;;
75035;SDS011;64247;51.540;5.854;2022-11-20T01:23:44;16.40;;;7.70;;
75035;SDS011;64247;51.540;5.854;2022-11-20T01:25:45;18.33;;;8.40;;
75035;SDS011;64247;51.540;5.854;2022-11-20T01:27:46;20.02;;;9.60;;
75035;SDS011;64247;51.540;5.854;2022-11-20T01:29:47;16.75;;;7.97;;
75035;SDS011;64247;51.540;5.854;2022-11-20T01:31:48;13.45;;;7.43;;
75035;SDS011;64247;51.540;5.854;2022-11-20T01:33:51;11.98;;;7.53;;
75035;SDS011;64247;51.540;5.854;2022-11-20T01:36:02;18.42;;;7.75;;
75035;SDS011;64247;51.540;5.854;2022-11-20T01:38:06;17.63;;;8.57;;
75035;SDS011;64247;51.540;5.854;2022-11-20T01:40:07;15.98;;;7.50;;
75035;SDS011;64247;51.540;5.854;2022-11-20T01:42:08;18.50;;;8.50;;
75035;SDS011;64247;51.540;5.854;2022-11-20T01:44:45;21.38;;;8.27;;
75035;SDS011;64247;51.540;5.854;2022-11-20T01:46:58;18.92;;;8.48;;
75035;SDS011;64247;51.540;5.854;2022-11-20T01:49:15;16.75;;;8.30;;
75035;SDS011;64247;51.540;5.854;2022-11-20T01:51:26;14.68;;;8.07;;
75035;SDS011;64247;51.540;5.854;2022-11-20T01:53:56;19.35;;;8.50;;
75035;SDS011;64247;51.540;5.854;2022-11-20T01:56:05;23.38;;;9.30;;
75035;SDS011;64247;51.540;5.854;2022-11-20T01:58:10;14.85;;;7.70;;
75035;SDS011;64247;51.540;5.854;2022-11-20T02:00:13;17.17;;;7.78;;
75035;SDS011;64247;51.540;5.854;2022-11-20T02:02:18;16.48;;;7.85;;
75035;SDS011;64247;51.540;5.854;2022-11-20T02:04:20;20.55;;;8.65;;
75035;SDS011;64247;51.540;5.854;2022-11-20T02:06:31;16.05;;;8.60;;
75035;SDS011;64247;51.540;5.854;2022-11-20T02:08:40;19.65;;;9.00;;
75035;SDS011;64247;51.540;5.854;2022-11-20T02:10:41;19.17;;;7.38;;
75035;SDS011;64247;51.540;5.854;2022-11-20T02:12:42;17.52;;;8.13;;
75035;SDS011;64247;51.540;5.854;2022-11-20T02:15:02;18.15;;;7.97;;
75035;SDS011;64247;51.540;5.854;2022-11-20T02:17:03;19.27;;;8.27;;
75035;SDS011;64247;51.540;5.854;2022-11-20T02:19:05;14.70;;;6.90;;
75035;SDS011;64247;51.540;5.854;2022-11-20T02:21:28;14.30;;;7.50;;
75035;SDS011;64247;51.540;5.854;2022-11-20T02:23:59;13.57;;;6.80;;
75035;SDS011;64247;51.540;5.854;2022-11-20T02:28:14;13.30;;;6.57;;
75035;SDS011;64247;51.540;5.854;2022-11-20T02:30:17;15.07;;;7.82;;
75035;SDS011;64247;51.540;5.854;2022-11-20T02:32:22;18.05;;;8.02;;
75035;SDS011;64247;51.540;5.854;2022-11-20T02:34:29;18.10;;;8.57;;
75035;SDS011;64247;51.540;5.854;2022-11-20T02:36:30;17.50;;;8.60;;
75035;SDS011;64247;51.540;5.854;2022-11-20T02:38:35;17.65;;;8.40;;
75035;SDS011;64247;51.540;5.854;2022-11-20T02:40:36;22.67;;;8.77;;
75035;SDS011;64247;51.540;5.854;2022-11-20T02:42:37;18.10;;;9.32;;
75035;SDS011;64247;51.540;5.854;2022-11-20T02:44:38;17.15;;;8.18;;
75035;SDS011;64247;51.540;5.854;2022-11-20T02:46:39;17.13;;;7.85;;
75035;SDS011;64247;51.540;5.854;2022-11-20T02:48:40;17.58;;;9.77;;
75035;SDS011;64247;51.540;5.854;2022-11-20T02:50:41;18.75;;;8.75;;
75035;SDS011;64247;51.540;5.854;2022-11-20T02:52:42;16.52;;;8.07;;
75035;SDS011;64247;51.540;5.854;2022-11-20T02:54:44;16.75;;;8.95;;
75035;SDS011;64247;51.540;5.854;2022-11-20T02:56:44;18.10;;;8.48;;
75035;SDS011;64247;51.540;5.854;2022-11-20T02:58:45;20.77;;;9.00;;
75035;SDS011;64247;51.540;5.854;2022-11-20T03:00:46;22.08;;;8.98;;
75035;SDS011;64247;51.540;5.854;2022-11-20T03:02:47;21.35;;;9.35;;
75035;SDS011;64247;51.540;5.854;2022-11-20T03:04:48;19.40;;;8.63;;
75035;SDS011;64247;51.540;5.854;2022-11-20T03:06:49;14.88;;;8.18;;
75035;SDS011;64247;51.540;5.854;2022-11-20T03:08:50;19.05;;;8.88;;
75035;SDS011;64247;51.540;5.854;2022-11-20T03:10:51;16.10;;;8.02;;
75035;SDS011;64247;51.540;5.854;2022-11-20T03:12:53;20.15;;;8.48;;
75035;SDS011;64247;51.540;5.854;2022-11-20T03:14:55;20.20;;;8.18;;
75035;SDS011;64247;51.540;5.854;2022-11-20T03:16:56;22.75;;;8.00;;
75035;SDS011;64247;51.540;5.854;2022-11-20T03:18:57;17.60;;;8.38;;
75035;SDS011;64247;51.540;5.854;2022-11-20T03:20:58;17.48;;;8.48;;
75035;SDS011;64247;51.540;5.854;2022-11-20T03:23:00;19.85;;;8.50;;
75035;SDS011;64247;51.540;5.854;2022-11-20T03:25:02;19.25;;;7.72;;
75035;SDS011;64247;51.540;5.854;2022-11-20T03:27:03;17.30;;;9.20;;
75035;SDS011;64247;51.540;5.854;2022-11-20T03:29:04;18.20;;;8.32;;
75035;SDS011;64247;51.540;5.854;2022-11-20T03:31:09;21.50;;;9.02;;
75035;SDS011;64247;51.540;5.854;2022-11-20T03:33:13;20.25;;;8.73;;
75035;SDS011;64247;51.540;5.854;2022-11-20T03:35:14;18.35;;;8.25;;
75035;SDS011;64247;51.540;5.854;2022-11-20T03:37:15;11.77;;;6.78;;
75035;SDS011;64247;51.540;5.854;2022-11-20T03:39:16;15.00;;;8.20;;
75035;SDS011;64247;51.540;5.854;2022-11-20T03:41:21;20.25;;;9.35;;
75035;SDS011;64247;51.540;5.854;2022-11-20T03:43:25;17.83;;;9.13;;
75035;SDS011;64247;51.540;5.854;2022-11-20T03:45:27;19.95;;;9.23;;
75035;SDS011;64247;51.540;5.854;2022-11-20T03:47:27;19.73;;;9.70;;
75035;SDS011;64247;51.540;5.854;2022-11-20T03:49:28;19.02;;;8.27;;
75035;SDS011;64247;51.540;5.854;2022-11-20T03:51:30;19.98;;;8.98;;
75035;SDS011;64247;51.540;5.854;2022-11-20T03:53:33;22.23;;;9.80;;
75035;SDS011;64247;51.540;5.854;2022-11-20T03:55:35;17.75;;;7.72;;
75035;SDS011;64247;51.540;5.854;2022-11-20T03:57:36;17.30;;;7.85;;
75035;SDS011;64247;51.540;5.854;2022-11-20T03:59:36;23.08;;;8.52;;
75035;SDS011;64247;51.540;5.854;2022-11-20T04:01:37;18.60;;;8.88;;
75035;SDS011;64247;51.540;5.854;2022-11-20T04:03:38;15.52;;;7.90;;
75035;SDS011;64247;51.540;5.854;2022-11-20T04:05:41;19.48;;;8.52;;
75035;SDS011;64247;51.540;5.854;2022-11-20T04:07:42;20.95;;;8.45;;
75035;SDS011;64247;51.540;5.854;2022-11-20T04:09:43;13.85;;;6.75;;
75035;SDS011;64247;51.540;5.854;2022-11-20T04:11:44;15.18;;;7.00;;
75035;SDS011;64247;51.540;5.854;2022-11-20T04:13:46;17.27;;;8.27;;
75035;SDS011;64247;51.540;5.854;2022-11-20T04:15:50;21.50;;;9.43;;
75035;SDS011;64247;51.540;5.854;2022-11-20T04:17:51;18.27;;;7.30;;
75035;SDS011;64247;51.540;5.854;2022-11-20T04:19:51;16.85;;;7.97;;
75035;SDS011;64247;51.540;5.854;2022-11-20T04:21:52;15.40;;;7.93;;
75035;SDS011;64247;51.540;5.854;2022-11-20T04:23:53;12.02;;;6.47;;
75035;SDS011;64247;51.540;5.854;2022-11-20T04:26:00;19.60;;;8.48;;
75035;SDS011;64247;51.540;5.854;2022-11-20T04:28:09;16.02;;;7.35;;
75035;SDS011;64247;51.540;5.854;2022-11-20T04:30:10;18.38;;;8.20;;
75035;SDS011;64247;51.540;5.854;2022-11-20T04:32:12;13.77;;;8.07;;
75035;SDS011;64247;51.540;5.854;2022-11-20T04:34:13;16.05;;;8.48;;
75035;SDS011;64247;51.540;5.854;2022-11-20T04:36:15;15.27;;;7.40;;
75035;SDS011;64247;51.540;5.854;2022-11-20T04:38:19;13.55;;;8.13;;
75035;SDS011;64247;51.540;5.854;2022-11-20T04:40:20;18.00;;;8.52;;
75035;SDS011;64247;51.540;5.854;2022-11-20T04:42:20;16.10;;;8.88;;
75035;SDS011;64247;51.540;5.854;2022-11-20T04:44:30;20.52;;;9.52;;
75035;SDS011;64247;51.540;5.854;2022-11-20T04:46:35;18.25;;;8.60;;
75035;SDS011;64247;51.540;5.854;2022-11-20T04:48:39;19.75;;;9.70;;
75035;SDS011;64247;51.540;5.854;2022-11-20T04:50:40;20.38;;;9.45;;
75035;SDS011;64247;51.540;5.854;2022-11-20T04:52:41;19.42;;;8.45;;
75035;SDS011;64247;51.540;5.854;2022-11-20T04:54:42;16.90;;;9.23;;
75035;SDS011;64247;51.540;5.854;2022-11-20T04:56:43;18.15;;;9.15;;
75035;SDS011;64247;51.540;5.854;2022-11-20T04:58:43;20.42;;;9.60;;
75035;SDS011;64247;51.540;5.854;2022-11-20T05:00:44;16.35;;;7.35;;
75035;SDS011;64247;51.540;5.854;2022-11-20T05:02:45;17.15;;;7.47;;
75035;SDS011;64247;51.540;5.854;2022-11-20T05:04:46;19.60;;;9.32;;
75035;SDS011;64247;51.540;5.854;2022-11-20T05:06:49;21.92;;;11.15;;
75035;SDS011;64247;51.540;5.854;2022-11-20T05:08:50;18.58;;;9.65;;
75035;SDS011;64247;51.540;5.854;2022-11-20T05:10:51;19.45;;;9.20;;
75035;SDS011;64247;51.540;5.854;2022-11-20T05:12:52;20.20;;;9.70;;
75035;SDS011;64247;51.540;5.854;2022-11-20T05:14:54;16.70;;;7.50;;
75035;SDS011;64247;51.540;5.854;2022-11-20T05:16:55;18.73;;;8.35;;
75035;SDS011;64247;51.540;5.854;2022-11-20T05:18:56;19.08;;;8.13;;
75035;SDS011;64247;51.540;5.854;2022-11-20T05:20:57;18.60;;;8.50;;
75035;SDS011;64247;51.540;5.854;2022-11-20T05:22:59;17.13;;;8.40;;
75035;SDS011;64247;51.540;5.854;2022-11-20T05:24:59;22.13;;;9.07;;
75035;SDS011;64247;51.540;5.854;2022-11-20T05:27:00;15.00;;;7.18;;
75035;SDS011;64247;51.540;5.854;2022-11-20T05:29:01;20.88;;;9.20;;
75035;SDS011;64247;51.540;5.854;2022-11-20T05:31:09;16.70;;;8.23;;
75035;SDS011;64247;51.540;5.854;2022-11-20T05:33:13;16.75;;;7.88;;
75035;SDS011;64247;51.540;5.854;2022-11-20T05:37:15;17.33;;;8.30;;
75035;SDS011;64247;51.540;5.854;2022-11-20T05:39:16;20.88;;;8.77;;
75035;SDS011;64247;51.540;5.854;2022-11-20T05:41:17;14.57;;;7.53;;
75035;SDS011;64247;51.540;5.854;2022-11-20T05:43:20;18.77;;;8.15;;
75035;SDS011;64247;51.540;5.854;2022-11-20T05:45:21;19.38;;;8.50;;
75035;SDS011;64247;51.540;5.854;2022-11-20T05:49:23;18.67;;;7.82;;
75035;SDS011;64247;51.540;5.854;2022-11-20T05:51:25;17.40;;;8.13;;
75035;SDS011;64247;51.540;5.854;2022-11-20T05:53:27;17.65;;;8.68;;
75035;SDS011;64247;51.540;5.854;2022-11-20T05:55:28;14.98;;;8.63;;
75035;SDS011;64247;51.540;5.854;2022-11-20T05:57:30;16.90;;;8.43;;
75035;SDS011;64247;51.540;5.854;2022-11-20T05:59:31;17.70;;;9.10;;
75035;SDS011;64247;51.540;5.854;2022-11-20T06:01:32;13.80;;;7.80;;
75035;SDS011;64247;51.540;5.854;2022-11-20T06:03:33;20.63;;;8.82;;
75035;SDS011;64247;51.540;5.854;2022-11-20T06:05:34;14.95;;;8.13;;
75035;SDS011;64247;51.540;5.854;2022-11-20T06:07:35;19.42;;;8.10;;
75035;SDS011;64247;51.540;5.854;2022-11-20T06:09:35;18.98;;;9.38;;
75035;SDS011;64247;51.540;5.854;2022-11-20T06:11:36;18.77;;;8.52;;
75035;SDS011;64247;51.540;5.854;2022-11-20T06:13:37;20.05;;;9.20;;
75035;SDS011;64247;51.540;5.854;2022-11-20T06:15:39;18.30;;;8.70;;
75035;SDS011;64247;51.540;5.854;2022-11-20T06:17:40;21.55;;;10.35;;
75035;SDS011;64247;51.540;5.854;2022-11-20T06:19:41;18.67;;;9.68;;
75035;SDS011;64247;51.540;5.854;2022-11-20T06:21:42;17.98;;;7.90;;
75035;SDS011;64247;51.540;5.854;2022-11-20T06:23:43;17.88;;;8.43;;
75035;SDS011;64247;51.540;5.854;2022-11-20T06:25:44;21.10;;;9.40;;
75035;SDS011;64247;51.540;5.854;2022-11-20T06:27:45;17.83;;;8.93;;
75035;SDS011;64247;51.540;5.854;2022-11-20T06:29:46;19.38;;;8.32;;
75035;SDS011;64247;51.540;5.854;2022-11-20T06:31:47;19.27;;;8.82;;
75035;SDS011;64247;51.540;5.854;2022-11-20T06:33:48;20.70;;;9.43;;
75035;SDS011;64247;51.540;5.854;2022-11-20T06:35:49;22.10;;;9.57;;
75035;SDS011;64247;51.540;5.854;2022-11-20T06:37:50;19.35;;;9.38;;
75035;SDS011;64247;51.540;5.854;2022-11-20T06:39:51;16.63;;;9.05;;
75035;SDS011;64247;51.540;5.854;2022-11-20T06:41:52;21.30;;;9.35;;
75035;SDS011;64247;51.540;5.854;2022-11-20T06:43:53;21.85;;;8.23;;
75035;SDS011;64247;51.540;5.854;2022-11-20T06:45:55;19.77;;;9.57;;
75035;SDS011;64247;51.540;5.854;2022-11-20T06:47:58;18.77;;;9.23;;
75035;SDS011;64247;51.540;5.854;2022-11-20T06:49:59;22.48;;;10.55;;
75035;SDS011;64247;51.540;5.854;2022-11-20T06:52:00;17.92;;;9.32;;
75035;SDS011;64247;51.540;5.854;2022-11-20T06:54:01;21.60;;;9.07;;
75035;SDS011;64247;51.540;5.854;2022-11-20T06:56:02;18.80;;;9.07;;
75035;SDS011;64247;51.540;5.854;2022-11-20T06:58:03;21.05;;;9.20;;
75035;SDS011;64247;51.540;5.854;2022-11-20T07:00:04;22.25;;;9.18;;
75035;SDS011;64247;51.540;5.854;2022-11-20T07:02:09;19.15;;;9.25;;
75035;SDS011;64247;51.540;5.854;2022-11-20T07:04:12;20.98;;;9.13;;
75035;SDS011;64247;51.540;5.854;2022-11-20T07:06:13;16.40;;;9.10;;
75035;SDS011;64247;51.540;5.854;2022-11-20T07:08:14;18.83;;;8.38;;
75035;SDS011;64247;51.540;5.854;2022-11-20T07:10:14;17.38;;;8.48;;
75035;SDS011;64247;51.540;5.854;2022-11-20T07:12:15;15.20;;;7.88;;
75035;SDS011;64247;51.540;5.854;2022-11-20T07:14:16;16.33;;;7.35;;
75035;SDS011;64247;51.540;5.854;2022-11-20T07:16:17;17.05;;;8.13;;
75035;SDS011;64247;51.540;5.854;2022-11-20T07:20:19;16.80;;;8.13;;
75035;SDS011;64247;51.540;5.854;2022-11-20T07:22:20;16.98;;;8.32;;
75035;SDS011;64247;51.540;5.854;2022-11-20T07:24:21;17.27;;;8.40;;
75035;SDS011;64247;51.540;5.854;2022-11-20T07:26:22;13.15;;;7.32;;
75035;SDS011;64247;51.540;5.854;2022-11-20T07:28:23;15.07;;;7.10;;
75035;SDS011;64247;51.540;5.854;2022-11-20T07:30:24;18.67;;;9.32;;
75035;SDS011;64247;51.540;5.854;2022-11-20T07:32:29;19.15;;;9.45;;
75035;SDS011;64247;51.540;5.854;2022-11-20T07:34:30;20.77;;;9.13;;
75035;SDS011;64247;51.540;5.854;2022-11-20T07:36:30;21.42;;;9.98;;
75035;SDS011;64247;51.540;5.854;2022-11-20T07:38:31;23.90;;;9.15;;
75035;SDS011;64247;51.540;5.854;2022-11-20T07:40:32;19.38;;;9.25;;
75035;SDS011;64247;51.540;5.854;2022-11-20T07:42:33;20.80;;;8.38;;
75035;SDS011;64247;51.540;5.854;2022-11-20T07:44:35;15.98;;;8.10;;
75035;SDS011;64247;51.540;5.854;2022-11-20T07:46:36;19.90;;;9.23;;
75035;SDS011;64247;51.540;5.854;2022-11-20T07:48:37;19.42;;;10.15;;
75035;SDS011;64247;51.540;5.854;2022-11-20T07:50:38;19.08;;;9.20;;
75035;SDS011;64247;51.540;5.854;2022-11-20T07:52:39;18.23;;;8.85;;
75035;SDS011;64247;51.540;5.854;2022-11-20T07:54:40;19.60;;;8.98;;
75035;SDS011;64247;51.540;5.854;2022-11-20T07:56:41;19.10;;;9.10;;
75035;SDS011;64247;51.540;5.854;2022-11-20T07:58:42;20.42;;;9.23;;
75035;SDS011;64247;51.540;5.854;2022-11-20T08:00:43;19.17;;;9.48;;
75035;SDS011;64247;51.540;5.854;2022-11-20T08:02:44;23.65;;;9.40;;
75035;SDS011;64247;51.540;5.854;2022-11-20T08:04:44;15.65;;;7.25;;
75035;SDS011;64247;51.540;5.854;2022-11-20T08:06:45;23.60;;;10.82;;
75035;SDS011;64247;51.540;5.854;2022-11-20T08:08:46;23.40;;;9.48;;
75035;SDS011;64247;51.540;5.854;2022-11-20T08:10:47;24.13;;;10.55;;
75035;SDS011;64247;51.540;5.854;2022-11-20T08:12:49;20.38;;;10.80;;
75035;SDS011;64247;51.540;5.854;2022-11-20T08:15:10;18.73;;;10.02;;
75035;SDS011;64247;51.540;5.854;2022-11-20T08:17:11;19.33;;;9.43;;
75035;SDS011;64247;51.540;5.854;2022-11-20T08:21:14;17.90;;;9.60;;
75035;SDS011;64247;51.540;5.854;2022-11-20T08:23:15;18.75;;;8.90;;
75035;SDS011;64247;51.540;5.854;2022-11-20T08:25:16;20.77;;;10.82;;
75035;SDS011;64247;51.540;5.854;2022-11-20T08:27:17;23.65;;;9.82;;
75035;SDS011;64247;51.540;5.854;2022-11-20T08:29:18;19.17;;;9.48;;
75035;SDS011;64247;51.540;5.854;2022-11-20T08:33:20;27.75;;;11.02;;
75035;SDS011;64247;51.540;5.854;2022-11-20T08:35:21;19.42;;;9.30;;
75035;SDS011;64247;51.540;5.854;2022-11-20T08:37:22;19.73;;;9.75;;
75035;SDS011;64247;51.540;5.854;2022-11-20T08:41:24;21.00;;;9.38;;
75035;SDS011;64247;51.540;5.854;2022-11-20T08:43:25;16.50;;;9.50;;
75035;SDS011;64247;51.540;5.854;2022-11-20T08:45:26;25.65;;;11.55;;
75035;SDS011;64247;51.540;5.854;2022-11-20T08:49:28;18.73;;;9.65;;
75035;SDS011;64247;51.540;5.854;2022-11-20T08:51:29;19.98;;;10.23;;
75035;SDS011;64247;51.540;5.854;2022-11-20T08:53:30;20.55;;;10.35;;
75035;SDS011;64247;51.540;5.854;2022-11-20T08:57:35;15.27;;;8.27;;
75035;SDS011;64247;51.540;5.854;2022-11-20T08:59:37;20.02;;;9.27;;
75035;SDS011;64247;51.540;5.854;2022-11-20T09:01:39;16.15;;;8.40;;
75035;SDS011;64247;51.540;5.854;2022-11-20T09:05:42;25.33;;;9.90;;
75035;SDS011;64247;51.540;5.854;2022-11-20T09:07:45;19.15;;;10.50;;
75035;SDS011;64247;51.540;5.854;2022-11-20T09:11:47;20.40;;;10.07;;
75035;SDS011;64247;51.540;5.854;2022-11-20T09:13:50;18.70;;;9.90;;
75035;SDS011;64247;51.540;5.854;2022-11-20T09:15:57;17.58;;;9.63;;
75035;SDS011;64247;51.540;5.854;2022-11-20T09:18:03;18.88;;;8.90;;
75035;SDS011;64247;51.540;5.854;2022-11-20T09:20:05;17.15;;;9.38;;
75035;SDS011;64247;51.540;5.854;2022-11-20T09:22:06;21.80;;;11.63;;
75035;SDS011;64247;51.540;5.854;2022-11-20T09:24:07;19.55;;;9.90;;
75035;SDS011;64247;51.540;5.854;2022-11-20T09:26:09;24.48;;;10.98;;
75035;SDS011;64247;51.540;5.854;2022-11-20T09:28:13;19.55;;;9.52;;
75035;SDS011;64247;51.540;5.854;2022-11-20T09:32:15;19.42;;;10.00;;
75035;SDS011;64247;51.540;5.854;2022-11-20T09:36:17;15.60;;;8.55;;
75035;SDS011;64247;51.540;5.854;2022-11-20T09:38:18;18.55;;;8.20;;
75035;SDS011;64247;51.540;5.854;2022-11-20T09:42:39;24.42;;;10.38;;
75035;SDS011;64247;51.540;5.854;2022-11-20T09:56:33;13.98;;;8.75;;
75035;SDS011;64247;51.540;5.854;2022-11-20T10:01:12;18.35;;;10.48;;
75035;SDS011;64247;51.540;5.854;2022-11-20T10:03:32;25.55;;;12.10;;
75035;SDS011;64247;51.540;5.854;2022-11-20T10:05:53;23.40;;;12.52;;
75035;SDS011;64247;51.540;5.854;2022-11-20T10:13:52;18.02;;;9.45;;
75035;SDS011;64247;51.540;5.854;2022-11-20T10:16:39;16.42;;;8.18;;
75035;SDS011;64247;51.540;5.854;2022-11-20T10:23:30;25.10;;;14.65;;
75035;SDS011;64247;51.540;5.854;2022-11-20T10:26:40;24.08;;;12.52;;
75035;SDS011;64247;51.540;5.854;2022-11-20T10:31:34;20.27;;;10.07;;
75035;SDS011;64247;51.540;5.854;2022-11-20T10:33:43;21.38;;;11.13;;
75035;SDS011;64247;51.540;5.854;2022-11-20T10:35:54;23.30;;;12.27;;
75035;SDS011;64247;51.540;5.854;2022-11-20T10:38:31;21.63;;;11.52;;
75035;SDS011;64247;51.540;5.854;2022-11-20T10:40:48;20.08;;;10.20;;
75035;SDS011;64247;51.540;5.854;2022-11-20T10:43:16;23.45;;;10.07;;
75035;SDS011;64247;51.540;5.854;2022-11-20T10:48:26;28.52;;;11.23;;
75035;SDS011;64247;51.540;5.854;2022-11-20T10:50:30;23.15;;;11.70;;
75035;SDS011;64247;51.540;5.854;2022-11-20T10:52:39;32.92;;;13.93;;
75035;SDS011;64247;51.540;5.854;2022-11-20T10:55:19;24.88;;;11.05;;
75035;SDS011;64247;51.540;5.854;2022-11-20T11:01:16;20.95;;;10.00;;
75035;SDS011;64247;51.540;5.854;2022-11-20T11:03:24;29.45;;;12.80;;
75035;SDS011;64247;51.540;5.854;2022-11-20T11:05:37;24.75;;;12.73;;
75035;SDS011;64247;51.540;5.854;2022-11-20T11:07:50;19.30;;;9.77;;
75035;SDS011;64247;51.540;5.854;2022-11-20T11:09:55;16.90;;;8.93;;
75035;SDS011;64247;51.540;5.854;2022-11-20T11:11:57;19.08;;;8.38;;
75035;SDS011;64247;51.540;5.854;2022-11-20T11:14:31;20.75;;;11.93;;
75035;SDS011;64247;51.540;5.854;2022-11-20T11:16:25;25.90;;;12.52;;
75035;SDS011;64247;51.540;5.854;2022-11-20T11:18:31;27.15;;;13.13;;
75035;SDS011;64247;51.540;5.854;2022-11-20T11:20:35;26.83;;;10.73;;
75035;SDS011;64247;51.540;5.854;2022-11-20T11:22:53;21.27;;;8.48;;
75035;SDS011;64247;51.540;5.854;2022-11-20T11:24:57;32.35;;;13.85;;
75035;SDS011;64247;51.540;5.854;2022-11-20T11:27:00;30.52;;;12.70;;
75035;SDS011;64247;51.540;5.854;2022-11-20T11:29:04;28.20;;;12.23;;
75035;SDS011;64247;51.540;5.854;2022-11-20T11:31:05;34.58;;;13.90;;
75035;SDS011;64247;51.540;5.854;2022-11-20T11:35:22;34.33;;;13.27;;
75035;SDS011;64247;51.540;5.854;2022-11-20T11:37:33;22.25;;;10.18;;
75035;SDS011;64247;51.540;5.854;2022-11-20T11:39:38;32.63;;;12.23;;
75035;SDS011;64247;51.540;5.854;2022-11-20T11:41:42;33.70;;;14.63;;
75035;SDS011;64247;51.540;5.854;2022-11-20T11:43:54;32.13;;;15.23;;
75035;SDS011;64247;51.540;5.854;2022-11-20T11:51:22;31.05;;;14.98;;
75035;SDS011;64247;51.540;5.854;2022-11-20T11:53:26;18.10;;;8.35;;
75035;SDS011;64247;51.540;5.854;2022-11-20T11:55:45;28.02;;;11.95;;
75035;SDS011;64247;51.540;5.854;2022-11-20T12:07:00;35.80;;;15.63;;
75035;SDS011;64247;51.540;5.854;2022-11-20T12:09:15;37.60;;;16.27;;
75035;SDS011;64247;51.540;5.854;2022-11-20T12:11:43;25.95;;;11.65;;
75035;SDS011;64247;51.540;5.854;2022-11-20T12:14:02;14.63;;;6.70;;
75035;SDS011;64247;51.540;5.854;2022-11-20T12:16:37;40.85;;;15.45;;
75035;SDS011;64247;51.540;5.854;2022-11-20T12:18:40;32.55;;;15.63;;
75035;SDS011;64247;51.540;5.854;2022-11-20T12:20:45;41.55;;;16.27;;
75035;SDS011;64247;51.540;5.854;2022-11-20T12:26:10;25.88;;;11.82;;
75035;SDS011;64247;51.540;5.854;2022-11-20T12:34:47;37.80;;;14.55;;
75035;SDS011;64247;51.540;5.854;2022-11-20T12:38:22;28.17;;;12.25;;
75035;SDS011;64247;51.540;5.854;2022-11-20T12:40:44;37.22;;;11.80;;
75035;SDS011;64247;51.540;5.854;2022-11-20T12:43:55;36.72;;;15.30;;
75035;SDS011;64247;51.540;5.854;2022-11-20T12:46:49;26.02;;;11.65;;
75035;SDS011;64247;51.540;5.854;2022-11-20T12:57:50;30.15;;;12.23;;
75035;SDS011;64247;51.540;5.854;2022-11-20T13:02:36;34.50;;;13.40;;
75035;SDS011;64247;51.540;5.854;2022-11-20T13:08:36;42.17;;;14.13;;
75035;SDS011;64247;51.540;5.854;2022-11-20T13:10:43;38.65;;;17.10;;
75035;SDS011;64247;51.540;5.854;2022-11-20T13:13:31;37.50;;;14.80;;
75035;SDS011;64247;51.540;5.854;2022-11-20T13:19:17;29.73;;;11.27;;
75035;SDS011;64247;51.540;5.854;2022-11-20T13:21:21;36.58;;;14.30;;
75035;SDS011;64247;51.540;5.854;2022-11-20T13:23:35;39.40;;;16.15;;
75035;SDS011;64247;51.540;5.854;2022-11-20T13:25:38;40.20;;;15.05;;
75035;SDS011;64247;51.540;5.854;2022-11-20T13:27:49;31.40;;;11.93;;
75035;SDS011;64247;51.540;5.854;2022-11-20T13:30:01;34.60;;;14.55;;
75035;SDS011;64247;51.540;5.854;2022-11-20T13:32:18;36.00;;;15.07;;
75035;SDS011;64247;51.540;5.854;2022-11-20T13:34:25;32.35;;;14.25;;
75035;SDS011;64247;51.540;5.854;2022-11-20T13:36:28;32.35;;;13.30;;
75035;SDS011;64247;51.540;5.854;2022-11-20T13:40:57;33.95;;;13.13;;
75035;SDS011;64247;51.540;5.854;2022-11-20T13:43:34;38.22;;;14.05;;
75035;SDS011;64247;51.540;5.854;2022-11-20T13:45:40;26.25;;;9.90;;
75035;SDS011;64247;51.540;5.854;2022-11-20T13:47:47;40.80;;;15.90;;
75035;SDS011;64247;51.540;5.854;2022-11-20T13:49:50;32.75;;;10.82;;
75035;SDS011;64247;51.540;5.854;2022-11-20T13:55:14;25.60;;;8.13;;
75035;SDS011;64247;51.540;5.854;2022-11-20T13:57:37;29.80;;;10.98;;
75035;SDS011;64247;51.540;5.854;2022-11-20T14:00:44;28.67;;;12.43;;
75035;SDS011;64247;51.540;5.854;2022-11-20T14:03:18;41.22;;;14.68;;
75035;SDS011;64247;51.540;5.854;2022-11-20T14:05:23;29.25;;;9.65;;
75035;SDS011;64247;51.540;5.854;2022-11-20T14:07:25;26.02;;;12.43;;
75035;SDS011;64247;51.540;5.854;2022-11-20T14:09:36;34.85;;;12.60;;
75035;SDS011;64247;51.540;5.854;2022-11-20T14:11:45;34.13;;;12.82;;
75035;SDS011;64247;51.540;5.854;2022-11-20T14:16:28;24.17;;;8.80;;
75035;SDS011;64247;51.540;5.854;2022-11-20T14:18:32;34.13;;;12.77;;
75035;SDS011;64247;51.540;5.854;2022-11-20T14:20:33;25.20;;;12.18;;
75035;SDS011;64247;51.540;5.854;2022-11-20T14:22:35;29.40;;;12.77;;
75035;SDS011;64247;51.540;5.854;2022-11-20T14:24:35;33.28;;;12.05;;